map of KFSO home
KFSO - Airport
Location
City:  Highgate, Vermont, United States
Name:Franklin County State Airport
ICAO:KFSO
FAA LID:FSO

Details
Type:Airport (Airfield)
Use:Public/Civil, International (customs landing rights)
Latitude:4456'25"N (44.940278)
Longitude:7305'51"W (-73.097471)
Datum:WGS 1984
Elevation:227 ft (69 m)
Variation:14.41W (WMM2015 magnetic declination)
0.07 annual change
Runways:1
Longest:3001 × 60 ft (915 × 18.5 m), paved

Time
Time Zone:UTC-5 (DST-4)
Local Time:

Weather
METAR:KFSO 092355Z AUTO 23005KT 10SM -SN OVC034 00/M05 A3011 RMK AO2 T10031049 10001 21017

Related Locations
Nearby:
Farthest:YAUG: 11580 mi / 18636 km
Augusta [Augusta Airport], WA, AU

Find:

   beyond  
but within

Other Information
Maps:
NOTAMs:
Links:
Sources:

  
  • flag of United States
  • flag of Vermont
  

Sectional Chart

Flight Planning
at skyvector.com

Satellite Image

Google Maps Satellite view

 

Copyright © 2004-2018 Karl L. Swartz. All rights reserved.
The Great Circle Mapper name and logo are trademarks of the Great Circle Mapper.
All other trademarks mentioned herein belong to their respective owners.
Please see credits for attibutions and further copyright information.

  Follow gcmap on Facebook Follow gcmap on Twitter Follow gcmap on Google+ GCmap on LinkedIn

hCard Microformat

Geo Microformat